createdAt,value
2022-10-02T00:00:09.066Z,27.55
2022-10-02T00:02:55.685Z,22.35
2022-10-02T00:05:41.918Z,22.77
2022-10-02T00:08:27.250Z,24.27
2022-10-02T00:11:19.747Z,21.33
2022-10-02T00:14:02.768Z,15.60
2022-10-02T00:16:35.301Z,25.88
2022-10-02T00:19:03.178Z,28.15
2022-10-02T00:22:01.426Z,18.23
2022-10-02T00:24:50.822Z,23.02
2022-10-02T00:27:43.427Z,21.00
2022-10-02T00:30:17.821Z,16.23
2022-10-02T00:32:57.196Z,21.50
2022-10-02T00:35:47.710Z,24.17
2022-10-02T00:38:23.984Z,26.02
2022-10-02T00:41:37.832Z,26.05
2022-10-02T00:44:17.503Z,19.45
2022-10-02T00:47:33.998Z,21.02
2022-10-02T00:50:30.232Z,18.55
2022-10-02T00:53:12.352Z,23.45
2022-10-02T00:56:05.117Z,25.20
2022-10-02T00:59:12.078Z,26.60
2022-10-02T01:02:09.662Z,25.20
2022-10-02T01:04:41.043Z,26.75
2022-10-02T01:07:11.434Z,28.13
2022-10-02T01:09:40.010Z,22.90
2022-10-02T01:12:07.769Z,28.83
2022-10-02T01:14:40.311Z,26.17
2022-10-02T01:17:26.982Z,22.45
2022-10-02T01:19:55.976Z,27.80
2022-10-02T01:22:38.680Z,28.83
2022-10-02T01:25:08.037Z,27.20
2022-10-02T01:27:39.153Z,27.58
2022-10-02T01:30:11.575Z,25.40
2022-10-02T01:32:55.283Z,25.40
2022-10-02T01:35:31.633Z,21.20
2022-10-02T01:38:03.825Z,26.38
2022-10-02T01:40:33.932Z,27.45
2022-10-02T01:43:19.214Z,26.02
2022-10-02T01:46:11.732Z,26.15
2022-10-02T01:49:46.231Z,32.47
2022-10-02T01:52:40.441Z,30.08
2022-10-02T01:55:30.408Z,32.42
2022-10-02T01:58:58.658Z,32.15
2022-10-02T02:01:25.563Z,28.38
2022-10-02T02:03:52.521Z,26.63
2022-10-02T02:06:39.193Z,34.47
2022-10-02T02:09:39.914Z,35.25
2022-10-02T02:12:40.473Z,29.08
2022-10-02T02:15:25.644Z,27.73
2022-10-02T02:18:11.656Z,24.95
2022-10-02T02:20:47.490Z,21.30
2022-10-02T02:23:24.681Z,26.48
2022-10-02T02:25:58.182Z,29.95
2022-10-02T02:28:29.514Z,22.63
2022-10-02T02:30:59.190Z,26.85
2022-10-02T02:33:42.353Z,27.05
2022-10-02T02:36:16.886Z,24.50
2022-10-02T02:39:03.245Z,29.33
2022-10-02T02:41:48.227Z,32.10
2022-10-02T02:44:24.391Z,37.55
2022-10-02T02:47:11.140Z,27.55
2022-10-02T02:49:55.479Z,27.02
2022-10-02T02:52:38.078Z,34.28
2022-10-02T02:55:18.942Z,23.65
2022-10-02T02:58:15.459Z,19.33
2022-10-02T03:00:42.600Z,13.23
2022-10-02T03:03:09.883Z,13.73
2022-10-02T03:05:50.049Z,12.68
2022-10-02T03:08:30.004Z,17.63
2022-10-02T03:11:16.849Z,8.55
2022-10-02T03:13:51.020Z,8.50
2022-10-02T03:16:45.232Z,9.50
2022-10-02T03:19:34.061Z,6.55
2022-10-02T03:22:42.125Z,10.40
2022-10-02T03:25:33.314Z,10.32
2022-10-02T03:28:54.541Z,9.20
2022-10-02T03:31:23.196Z,5.75
2022-10-02T03:33:53.817Z,7.60
2022-10-02T03:36:24.604Z,7.97
2022-10-02T03:39:19.743Z,6.88
2022-10-02T03:41:43.317Z,9.23
2022-10-02T03:44:10.301Z,9.63
2022-10-02T03:46:37.624Z,8.02
2022-10-02T03:49:05.063Z,8.50
2022-10-02T03:51:32.171Z,14.60
2022-10-02T03:53:59.165Z,10.40
2022-10-02T03:57:03.437Z,11.25
2022-10-02T04:00:02.893Z,13.10
2022-10-02T04:03:00.556Z,19.48
2022-10-02T04:06:04.861Z,27.15
2022-10-02T04:09:26.181Z,22.17
2022-10-02T04:11:59.487Z,29.00
2022-10-02T04:14:38.656Z,28.63
2022-10-02T04:17:44.883Z,23.02
2022-10-02T04:20:26.483Z,36.60
2022-10-02T04:23:06.588Z,24.15
2022-10-02T04:25:39.980Z,34.25
2022-10-02T04:28:14.345Z,25.90
2022-10-02T04:30:41.657Z,32.50
2022-10-02T04:33:24.376Z,24.15
2022-10-02T04:36:36.921Z,28.58
2022-10-02T04:39:19.139Z,18.40
2022-10-02T04:42:06.059Z,23.35
2022-10-02T04:45:26.714Z,26.00
2022-10-02T04:48:05.748Z,23.98
2022-10-02T04:50:53.321Z,31.80
2022-10-02T04:53:47.992Z,31.00
2022-10-02T04:56:45.525Z,30.25
2022-10-02T04:59:40.558Z,30.85
2022-10-02T05:02:31.283Z,30.10
2022-10-02T05:05:49.655Z,35.13
2022-10-02T05:08:16.518Z,29.25
2022-10-02T05:11:07.160Z,28.55
2022-10-02T05:14:39.104Z,31.92
2022-10-02T05:17:30.138Z,31.90
2022-10-02T05:20:29.008Z,27.08
2022-10-02T05:23:50.031Z,28.50
2022-10-02T05:27:01.450Z,23.10
2022-10-02T05:30:09.134Z,23.55
2022-10-02T05:33:06.693Z,30.48
2022-10-02T05:36:15.149Z,29.05
2022-10-02T05:39:07.170Z,26.45
2022-10-02T05:42:29.096Z,24.23
2022-10-02T05:45:05.263Z,28.58
2022-10-02T05:47:40.921Z,25.35
2022-10-02T05:50:20.609Z,22.38
2022-10-02T05:52:58.764Z,28.90
2022-10-02T05:55:34.279Z,25.30
2022-10-02T05:58:26.258Z,24.83
2022-10-02T06:01:13.388Z,27.42
2022-10-02T06:04:18.169Z,21.80
2022-10-02T06:06:57.685Z,25.30
2022-10-02T06:09:31.415Z,24.10
2022-10-02T06:12:30.632Z,28.35
2022-10-02T06:15:17.822Z,37.25
2022-10-02T06:18:10.422Z,23.10
2022-10-02T06:20:49.887Z,25.63
2022-10-02T06:23:50.944Z,27.08
2022-10-02T06:26:47.968Z,26.08
2022-10-02T06:29:29.913Z,27.50
2022-10-02T06:32:42.122Z,27.35
2022-10-02T06:35:15.987Z,22.05
2022-10-02T06:38:12.258Z,26.35
2022-10-02T06:40:56.378Z,20.23
2022-10-02T06:43:40.591Z,19.25
2022-10-02T06:46:56.295Z,18.90
2022-10-02T06:49:46.468Z,22.60
2022-10-02T06:52:38.308Z,18.42
2022-10-02T06:55:41.285Z,11.13
2022-10-02T06:59:00.033Z,24.33
2022-10-02T07:01:56.368Z,16.45
2022-10-02T07:04:52.955Z,25.50
2022-10-02T07:07:50.515Z,24.77
2022-10-02T07:10:23.056Z,17.40
2022-10-02T07:13:07.739Z,16.73
2022-10-02T07:16:24.787Z,19.20
2022-10-02T07:19:14.106Z,17.98
2022-10-02T07:22:43.555Z,16.33
2022-10-02T07:25:56.188Z,15.00
2022-10-02T07:28:44.079Z,21.15
2022-10-02T07:31:40.502Z,19.20
2022-10-02T07:34:51.973Z,26.60
2022-10-02T07:37:33.963Z,15.50
2022-10-02T07:40:43.369Z,22.05
2022-10-02T07:43:42.538Z,19.88
2022-10-02T07:46:33.594Z,18.73
2022-10-02T07:49:38.547Z,16.80
2022-10-02T07:52:39.628Z,23.33
2022-10-02T07:55:22.580Z,17.85
2022-10-02T07:58:18.931Z,15.63
2022-10-02T08:00:51.729Z,21.52
2022-10-02T08:03:29.118Z,20.23
2022-10-02T08:05:59.533Z,20.20
2022-10-02T08:08:59.390Z,20.05
2022-10-02T08:11:48.588Z,18.02
2022-10-02T08:14:41.450Z,18.40
2022-10-02T08:17:35.943Z,14.13
2022-10-02T08:20:35.193Z,15.70
2022-10-02T08:23:27.430Z,14.10
2022-10-02T08:26:19.884Z,10.82
2022-10-02T08:28:53.428Z,14.82
2022-10-02T08:31:23.412Z,14.20
2022-10-02T08:33:50.436Z,15.65
2022-10-02T08:37:01.071Z,9.25
2022-10-02T08:39:47.898Z,12.52
2022-10-02T08:43:17.297Z,17.60
2022-10-02T08:45:53.775Z,10.63
2022-10-02T08:48:51.262Z,18.05
2022-10-02T08:51:44.574Z,11.75
2022-10-02T08:54:43.233Z,9.88
2022-10-02T08:57:55.441Z,13.88
2022-10-02T09:00:39.799Z,12.30
2022-10-02T09:03:36.053Z,10.27
2022-10-02T09:06:55.934Z,9.05
2022-10-02T09:09:46.960Z,11.20
2022-10-02T09:13:04.638Z,11.20
2022-10-02T09:15:51.799Z,14.18
2022-10-02T09:19:15.125Z,12.00
2022-10-02T09:21:56.354Z,10.68
2022-10-02T09:25:06.977Z,11.63
2022-10-02T09:28:14.382Z,11.63
2022-10-02T09:31:26.041Z,12.73
2022-10-02T09:34:48.445Z,13.00
2022-10-02T09:37:50.423Z,12.63
2022-10-02T09:40:40.261Z,13.68
2022-10-02T09:43:34.446Z,12.27
2022-10-02T09:46:10.505Z,13.30
2022-10-02T09:50:22.845Z,19.05
2022-10-02T09:53:37.314Z,13.57
2022-10-02T09:56:53.876Z,19.40
2022-10-02T10:00:05.279Z,17.60
2022-10-02T10:03:18.676Z,19.83
2022-10-02T10:06:18.372Z,17.73
2022-10-02T10:09:27.258Z,21.30
2022-10-02T10:12:10.169Z,20.80
2022-10-02T10:15:20.070Z,19.58
2022-10-02T10:18:26.749Z,26.13
2022-10-02T10:21:46.264Z,21.67
2022-10-02T10:24:41.082Z,15.85
2022-10-02T10:27:32.085Z,18.08
2022-10-02T10:30:31.182Z,17.15
2022-10-02T10:33:19.781Z,18.02
2022-10-02T10:36:34.560Z,23.25
2022-10-02T10:39:53.588Z,18.45
2022-10-02T10:43:03.430Z,13.90
2022-10-02T10:46:10.867Z,18.50
2022-10-02T10:49:06.233Z,14.77
2022-10-02T10:52:14.005Z,15.63
2022-10-02T10:55:18.011Z,13.65
2022-10-02T10:58:15.535Z,15.48
2022-10-02T11:01:19.344Z,17.13
2022-10-02T11:04:27.083Z,13.93
2022-10-02T11:07:50.500Z,13.75
2022-10-02T11:10:28.764Z,14.13
2022-10-02T11:13:43.170Z,13.43
2022-10-02T11:16:50.620Z,15.98
2022-10-02T11:19:28.238Z,12.82
2022-10-02T11:22:20.775Z,14.25
2022-10-02T11:25:12.826Z,17.42
2022-10-02T11:28:08.315Z,14.57
2022-10-02T11:31:14.765Z,11.88
2022-10-02T11:33:57.512Z,15.43
2022-10-02T11:37:13.347Z,19.42
2022-10-02T11:39:47.150Z,20.73
2022-10-02T11:42:59.219Z,16.70
2022-10-02T11:46:06.412Z,11.75
2022-10-02T11:48:59.045Z,14.00
2022-10-02T11:52:18.374Z,13.98
2022-10-02T11:55:09.939Z,12.32
2022-10-02T11:58:16.363Z,11.65
2022-10-02T12:01:21.213Z,9.85
2022-10-02T12:03:53.030Z,12.27
2022-10-02T12:06:44.537Z,13.63
2022-10-02T12:09:36.671Z,13.13
2022-10-02T12:12:25.782Z,13.20
2022-10-02T12:15:22.878Z,12.93
2022-10-02T12:18:51.025Z,14.23
2022-10-02T12:22:45.265Z,12.73
2022-10-02T12:26:22.515Z,10.43
2022-10-02T12:29:02.915Z,9.10
2022-10-02T12:31:46.047Z,10.98
2022-10-02T12:34:57.198Z,10.82
2022-10-02T12:38:07.460Z,10.23
2022-10-02T12:40:47.013Z,10.48
2022-10-02T12:43:42.753Z,10.90
2022-10-02T12:46:49.873Z,11.52
2022-10-02T12:50:27.787Z,9.90
2022-10-02T12:53:51.326Z,10.13
2022-10-02T12:56:52.142Z,8.30
2022-10-02T12:59:55.821Z,6.32
2022-10-02T13:03:00.360Z,8.32
2022-10-02T13:05:34.463Z,8.45
2022-10-02T13:08:31.668Z,13.05
2022-10-02T13:11:13.555Z,13.98
2022-10-02T13:14:20.968Z,11.25
2022-10-02T13:17:22.334Z,11.30
2022-10-02T13:20:39.956Z,7.72
2022-10-02T13:23:36.130Z,8.13
2022-10-02T13:26:22.802Z,5.95
2022-10-02T13:29:06.667Z,9.63
2022-10-02T13:31:48.683Z,10.60
2022-10-02T13:35:15.134Z,12.32
2022-10-02T13:38:03.549Z,9.40
2022-10-02T13:40:51.448Z,10.48
2022-10-02T13:44:01.834Z,12.43
2022-10-02T13:46:45.035Z,7.72
2022-10-02T13:49:33.282Z,8.15
2022-10-02T13:52:52.597Z,10.18
2022-10-02T13:55:28.675Z,11.45
2022-10-02T13:58:08.653Z,7.78
2022-10-02T14:00:38.568Z,12.05
2022-10-02T14:03:20.059Z,5.50
2022-10-02T14:06:35.602Z,9.65
2022-10-02T14:09:30.074Z,11.82
2022-10-02T14:12:28.172Z,6.55
2022-10-02T14:15:30.716Z,7.60
2022-10-02T14:18:28.329Z,10.48
2022-10-02T14:21:27.244Z,11.32
2022-10-02T14:24:16.173Z,7.28
2022-10-02T14:26:51.940Z,6.68
2022-10-02T14:29:48.873Z,7.18
2022-10-02T14:32:33.822Z,8.50
2022-10-02T14:35:20.774Z,10.25
2022-10-02T14:38:19.921Z,8.93
2022-10-02T14:40:53.396Z,5.72
2022-10-02T14:43:37.234Z,6.55
2022-10-02T14:46:27.640Z,9.77
2022-10-02T14:49:34.160Z,5.75
2022-10-02T14:52:10.357Z,8.88
2022-10-02T14:55:02.003Z,9.35
2022-10-02T14:58:00.880Z,8.43
2022-10-02T15:00:50.174Z,12.48
2022-10-02T15:03:52.428Z,4.68
2022-10-02T15:06:59.917Z,3.22
2022-10-02T15:10:17.165Z,6.50
2022-10-02T15:13:01.682Z,6.32
2022-10-02T15:15:49.775Z,6.88
2022-10-02T15:18:42.033Z,7.53
2022-10-02T15:21:52.163Z,6.43
2022-10-02T15:24:58.687Z,6.70
2022-10-02T15:27:49.199Z,9.70
2022-10-02T15:30:26.848Z,5.95
2022-10-02T15:33:42.599Z,6.85
2022-10-02T15:36:43.809Z,7.57
2022-10-02T15:39:38.765Z,8.25
2022-10-02T15:42:09.296Z,8.77
2022-10-02T15:45:07.548Z,2.78
2022-10-02T15:47:55.517Z,11.73
2022-10-02T15:51:14.484Z,5.80
2022-10-02T15:54:14.526Z,6.80
2022-10-02T15:57:08.066Z,5.70
2022-10-02T16:00:05.509Z,5.50
2022-10-02T16:02:53.698Z,7.55
2022-10-02T16:05:44.359Z,9.77
2022-10-02T16:08:39.002Z,7.05
2022-10-02T16:11:27.850Z,12.50
2022-10-02T16:14:12.537Z,5.82
2022-10-02T16:17:07.138Z,10.45
2022-10-02T16:19:40.793Z,9.20
2022-10-02T16:22:29.022Z,8.55
2022-10-02T16:25:12.407Z,8.23
2022-10-02T16:27:51.247Z,9.88
2022-10-02T16:30:25.003Z,10.75
2022-10-02T16:33:25.878Z,9.93
2022-10-02T16:36:41.258Z,5.95
2022-10-02T16:39:10.888Z,8.35
2022-10-02T16:42:13.729Z,9.32
2022-10-02T16:45:40.978Z,8.57
2022-10-02T16:48:35.077Z,9.10
2022-10-02T16:51:14.889Z,10.75
2022-10-02T16:54:03.473Z,8.55
2022-10-02T16:56:46.622Z,9.07
2022-10-02T16:59:39.707Z,10.68
2022-10-02T17:02:20.778Z,7.65
2022-10-02T17:05:16.170Z,10.10
2022-10-02T17:08:17.022Z,11.30
2022-10-02T17:11:26.317Z,10.73
2022-10-02T17:14:22.035Z,17.48
2022-10-02T17:17:03.326Z,16.23
2022-10-02T17:19:52.881Z,16.08
2022-10-02T17:22:42.829Z,15.93
2022-10-02T17:25:47.522Z,19.67
2022-10-02T17:28:48.409Z,14.60
2022-10-02T17:31:29.263Z,19.42
2022-10-02T17:34:01.500Z,9.15
2022-10-02T17:36:49.492Z,10.27
2022-10-02T17:39:32.182Z,16.00
2022-10-02T17:42:41.413Z,9.93
2022-10-02T17:45:33.164Z,9.65
2022-10-02T17:48:48.708Z,9.00
2022-10-02T17:51:52.493Z,12.55
2022-10-02T17:55:14.900Z,11.30
2022-10-02T17:58:17.024Z,10.13
2022-10-02T18:01:18.139Z,11.30
2022-10-02T18:04:41.509Z,18.48
2022-10-02T18:07:52.752Z,8.98
2022-10-02T18:10:56.108Z,7.75
2022-10-02T18:14:09.192Z,12.32
2022-10-02T18:16:48.308Z,11.38
2022-10-02T18:19:51.494Z,11.90
2022-10-02T18:22:51.652Z,12.73
2022-10-02T18:25:43.510Z,14.23
2022-10-02T18:28:25.477Z,15.88
2022-10-02T18:31:55.290Z,13.25
2022-10-02T18:34:42.769Z,9.35
2022-10-02T18:37:43.152Z,9.25
2022-10-02T18:40:52.526Z,12.07
2022-10-02T18:44:03.163Z,12.25
2022-10-02T18:46:51.897Z,15.18
2022-10-02T18:49:43.305Z,12.82
2022-10-02T18:52:18.032Z,11.77
2022-10-02T18:55:26.097Z,10.65
2022-10-02T18:58:21.440Z,14.32
2022-10-02T19:01:00.578Z,14.10
2022-10-02T19:04:16.979Z,8.77
2022-10-02T19:07:02.971Z,15.68
2022-10-02T19:09:31.926Z,13.00
2022-10-02T19:12:22.158Z,13.80
2022-10-02T19:14:55.934Z,10.90
2022-10-02T19:17:27.081Z,12.53
2022-10-02T19:19:55.901Z,21.27
2022-10-02T19:22:38.549Z,10.25
2022-10-02T19:25:16.110Z,15.40
2022-10-02T19:27:54.414Z,9.52
2022-10-02T19:30:27.378Z,17.30
2022-10-02T19:33:08.055Z,13.03
2022-10-02T19:35:44.312Z,16.40
2022-10-02T19:38:33.011Z,11.45
2022-10-02T19:41:03.023Z,8.90
2022-10-02T19:43:33.790Z,13.68
2022-10-02T19:46:05.519Z,11.93
2022-10-02T19:48:33.633Z,9.57
2022-10-02T19:53:50.625Z,14.63
2022-10-02T19:56:58.943Z,14.10
2022-10-02T19:59:41.878Z,13.67
2022-10-02T20:02:41.587Z,12.43
2022-10-02T20:05:28.199Z,10.13
2022-10-02T20:08:07.281Z,19.77
2022-10-02T20:10:43.699Z,13.40
2022-10-02T20:13:19.136Z,14.30
2022-10-02T20:16:06.604Z,14.53
2022-10-02T20:18:34.380Z,14.23
2022-10-02T20:21:14.499Z,13.50
2022-10-02T20:23:46.604Z,15.20
2022-10-02T20:26:17.151Z,13.40
2022-10-02T20:28:56.763Z,15.37
2022-10-02T20:31:33.683Z,11.53
2022-10-02T20:34:05.574Z,11.27
2022-10-02T20:37:05.416Z,10.93
2022-10-02T20:39:41.933Z,16.53
2022-10-02T20:42:16.362Z,15.60
2022-10-02T20:44:43.583Z,8.20
2022-10-02T20:47:36.827Z,12.93
2022-10-02T20:50:39.178Z,13.27
2022-10-02T20:53:09.017Z,8.90
2022-10-02T20:55:53.640Z,12.20
2022-10-02T20:58:52.920Z,13.67
2022-10-02T21:01:22.222Z,14.03
2022-10-02T21:04:45.822Z,9.93
2022-10-02T21:07:35.029Z,14.37
2022-10-02T21:10:15.192Z,13.77
2022-10-02T21:13:24.329Z,12.93
2022-10-02T21:16:31.481Z,12.53
2022-10-02T21:19:38.303Z,13.90
2022-10-02T21:22:33.336Z,17.03
2022-10-02T22:32:37.652Z,10.83
2022-10-02T22:35:43.260Z,8.50
2022-10-02T22:38:26.034Z,14.20
2022-10-02T22:40:58.995Z,14.30
2022-10-02T22:43:54.299Z,10.97
2022-10-02T22:46:41.165Z,7.90
2022-10-02T22:49:46.159Z,10.17
2022-10-02T22:52:28.126Z,18.53
2022-10-02T22:55:11.967Z,11.73
2022-10-02T22:58:12.688Z,11.27
2022-10-02T23:01:27.106Z,16.53
2022-10-02T23:04:04.592Z,14.30
2022-10-02T23:06:48.399Z,11.67
2022-10-02T23:09:27.503Z,15.33
2022-10-02T23:12:11.865Z,10.20
2022-10-02T23:14:56.971Z,13.57
2022-10-02T23:17:59.213Z,14.53
2022-10-02T23:20:45.407Z,13.90
2022-10-02T23:23:55.971Z,14.27
2022-10-02T23:26:50.089Z,24.17
2022-10-02T23:29:53.657Z,12.10
2022-10-02T23:32:27.128Z,15.67
2022-10-02T23:35:19.210Z,17.80
2022-10-02T23:37:56.490Z,15.23
2022-10-02T23:41:10.120Z,18.07
2022-10-02T23:44:07.515Z,13.83
2022-10-02T23:46:54.171Z,16.30
2022-10-02T23:49:47.767Z,11.97
2022-10-02T23:52:50.268Z,13.30
2022-10-02T23:55:55.654Z,14.17
2022-10-02T23:59:04.799Z,13.13
